Time;durP1;ratioP1;P1;durP2;ratioP2;P2;SDS_P1;SDS_P2;PMS_P1;PMS_P2;Temp;Humidity;BMP_temperature;BMP_pressure;BME280_temperature;BME280_humidity;BME280_pressure;Samples;Min_cycle;Max_cycle;Signal;HPM_P1;HPM_P2
2022/02/19 00:01:01;;;;;;;;;76.00;60.00;;;;;1.25;87.92;101104.50;5132601;27;8843;-76
2022/02/19 00:03:31;;;;;;;;;71.33;60.00;;;;;1.23;88.56;101105.84;5133973;27;8851;-76
2022/02/19 00:06:26;;;;;;;;;76.00;60.67;;;;;1.25;87.86;101115.41;5136645;27;8839;-76
2022/02/19 00:09:09;;;;;;;;;78.33;66.00;;;;;1.23;88.14;101127.66;5153928;27;8929;-77
2022/02/19 00:12:06;;;;;;;;;80.33;65.33;;;;;1.21;88.19;101124.34;5156817;27;8829;-76
2022/02/19 00:15:03;;;;;;;;;77.33;60.67;;;;;1.08;88.60;101128.31;5143128;27;8905;-76
2022/02/19 00:17:58;;;;;;;;;68.67;57.67;;;;;0.89;88.91;101118.84;5139945;27;8861;-76
2022/02/19 00:20:56;;;;;;;;;55.67;49.00;;;;;0.99;88.74;101124.38;5135985;27;8831;-76
2022/02/19 00:23:51;;;;;;;;;67.00;56.00;;;;;1.01;88.26;101114.09;5137301;27;8868;-76
2022/02/19 00:26:29;;;;;;;;;65.33;55.33;;;;;0.96;88.09;101108.56;5106174;27;8827;-75
2022/02/19 00:29:25;;;;;;;;;55.67;49.33;;;;;0.90;88.52;101123.22;5136007;27;8819;-75
2022/02/19 00:32:21;;;;;;;;;48.33;46.00;;;;;0.77;88.58;101119.00;5135414;27;8841;-75
2022/02/19 00:35:18;;;;;;;;;52.67;47.67;;;;;0.71;89.60;101126.28;5135957;27;8854;-75
2022/02/19 00:38:17;;;;;;;;;64.33;50.67;;;;;0.75;88.46;101129.31;5149205;27;8837;-75
2022/02/19 00:41:14;;;;;;;;;73.00;58.67;;;;;0.66;88.73;101133.56;5142775;27;8849;-76
2022/02/19 00:44:10;;;;;;;;;60.00;51.67;;;;;0.58;88.87;101131.28;5156763;27;8910;-76
2022/02/19 00:47:06;;;;;;;;;67.67;54.33;;;;;0.79;88.05;101133.19;5153556;27;8902;-75
2022/02/19 00:50:02;;;;;;;;;57.33;51.00;;;;;0.84;88.06;101138.66;5135548;27;8816;-76
2022/02/19 00:52:58;;;;;;;;;70.67;56.67;;;;;0.83;87.59;101134.28;5135637;27;8811;-76
2022/02/19 00:55:54;;;;;;;;;70.33;58.00;;;;;0.70;87.95;101127.38;5135706;27;8838;-76
2022/02/19 00:58:50;;;;;;;;;74.00;61.33;;;;;0.77;87.93;101141.59;5135114;27;8851;-76
2022/02/19 01:01:46;;;;;;;;;84.00;67.33;;;;;0.84;88.08;101141.38;5135273;27;8877;-76
2022/02/19 01:04:42;;;;;;;;;83.00;66.33;;;;;0.78;89.07;101145.97;5144245;27;8840;-76
2022/02/19 01:07:38;;;;;;;;;84.00;66.67;;;;;0.69;88.19;101152.09;5134558;27;8844;-75
2022/02/19 01:10:37;;;;;;;;;79.33;64.33;;;;;0.70;87.87;101160.03;5121283;27;8877;-75
2022/02/19 01:13:05;;;;;;;;;74.33;62.00;;;;;0.65;87.26;101154.53;5136254;27;8819;-75
2022/02/19 01:15:51;;;;;;;;;72.67;58.33;;;;;0.53;87.96;101159.25;5121115;27;8843;-75
2022/02/19 01:18:47;;;;;;;;;71.33;59.33;;;;;0.53;88.57;101153.81;5151648;27;8825;-75
2022/02/19 01:21:43;;;;;;;;;64.33;54.67;;;;;0.54;88.64;101174.53;5155619;27;8828;-75
2022/02/19 01:24:38;;;;;;;;;72.33;60.00;;;;;0.39;89.81;101160.72;5156485;27;8828;-75
2022/02/19 01:27:06;;;;;;;;;60.67;49.00;;;;;0.36;89.21;101177.53;5155313;27;8852;-75
2022/02/19 01:30:04;;;;;;;;;69.00;55.00;;;;;0.21;89.89;101172.69;5120873;27;8850;-75
2022/02/19 01:33:00;;;;;;;;;65.00;56.33;;;;;0.23;89.73;101171.41;5134684;27;8961;-75
2022/02/19 01:35:55;;;;;;;;;66.67;54.67;;;;;0.22;89.84;101179.78;5134794;27;9642;-75
2022/02/19 01:38:51;;;;;;;;;67.33;55.67;;;;;0.21;89.72;101169.97;5152319;27;8835;-75
2022/02/19 01:41:46;;;;;;;;;67.00;54.00;;;;;0.09;89.72;101167.38;5155268;27;8824;-75
2022/02/19 01:44:45;;;;;;;;;68.00;56.33;;;;;0.19;90.58;101169.41;5134357;27;8942;-75
2022/02/19 01:47:41;;;;;;;;;60.67;51.67;;;;;0.14;91.09;101174.78;5134672;27;8862;-76
2022/02/19 01:50:10;;;;;;;;;64.00;55.00;;;;;0.02;90.97;101174.88;5117256;27;8831;-76
2022/02/19 01:53:06;;;;;;;;;70.00;56.33;;;;;0.30;90.17;101181.25;5120893;27;8823;-76
2022/02/19 01:56:02;;;;;;;;;57.33;51.00;;;;;0.12;89.91;101183.19;5134627;27;8843;-77
2022/02/19 01:58:58;;;;;;;;;73.00;56.67;;;;;0.07;89.81;101183.09;5154119;27;8833;-77
2022/02/19 02:01:53;;;;;;;;;64.33;52.00;;;;;0.16;89.62;101192.50;5154729;27;8801;-76
2022/02/19 02:04:49;;;;;;;;;56.67;50.67;;;;;0.33;89.06;101200.63;5154832;27;8849;-76
2022/02/19 02:07:45;;;;;;;;;71.00;57.33;;;;;0.11;89.31;101199.75;5154096;27;8901;-76
2022/02/19 02:10:13;;;;;;;;;83.67;60.67;;;;;0.05;89.46;101209.72;5139586;27;8831;-76
2022/02/19 02:13:09;;;;;;;;;66.33;52.67;;;;;0.14;88.54;101202.78;5134165;27;8835;-76
2022/02/19 02:16:05;;;;;;;;;69.00;57.67;;;;;-0.04;88.71;101208.50;5122325;27;8842;-76
2022/02/19 02:19:00;;;;;;;;;69.67;57.67;;;;;0.00;88.13;101215.09;5134342;27;8839;-76
2022/02/19 02:21:30;;;;;;;;;67.33;56.67;;;;;-0.13;89.66;101210.81;5134510;27;8868;-75
2022/02/19 02:24:27;;;;;;;;;71.00;58.33;;;;;-0.20;91.10;101215.59;5133882;27;8843;-76
2022/02/19 02:27:17;;;;;;;;;75.00;58.67;;;;;-0.15;91.09;101217.56;5134949;27;8843;-76
2022/02/19 02:29:48;;;;;;;;;76.33;57.67;;;;;-0.18;90.93;101223.50;5134066;27;8847;-75
2022/02/19 02:32:43;;;;;;;;;69.67;59.33;;;;;-0.21;90.95;101232.97;5133653;27;8839;-76
2022/02/19 02:35:40;;;;;;;;;74.33;60.67;;;;;-0.25;90.67;101239.13;5134649;27;8814;-76
2022/02/19 02:38:35;;;;;;;;;82.00;65.33;;;;;-0.31;91.57;101241.78;5149338;27;8856;-75
2022/02/19 02:41:31;;;;;;;;;78.67;63.67;;;;;-0.39;92.10;101244.88;5153976;27;9695;-75
2022/02/19 02:44:27;;;;;;;;;82.33;67.00;;;;;-0.40;91.67;101250.56;5153871;27;8829;-76
2022/02/19 02:47:24;;;;;;;;;82.67;65.33;;;;;-0.47;91.82;101248.00;5146881;27;8937;-75
2022/02/19 02:50:20;;;;;;;;;84.00;68.25;;;;;-0.54;92.05;101246.50;5133459;27;8912;-75
2022/02/19 02:53:15;;;;;;;;;98.00;69.25;;;;;-0.52;91.71;101241.66;5133648;27;8823;-75
2022/02/19 02:56:11;;;;;;;;;98.25;72.50;;;;;-0.37;91.73;101250.91;5133615;27;8851;-75
2022/02/19 02:59:07;;;;;;;;;97.00;75.50;;;;;-0.39;91.28;101252.19;5133256;27;8819;-75
2022/02/19 03:02:03;;;;;;;;;85.00;66.75;;;;;-0.43;91.22;101254.59;5119431;27;8862;-76
2022/02/19 03:04:58;;;;;;;;;87.50;67.00;;;;;-0.36;90.89;101254.44;5133078;27;8842;-75
2022/02/19 03:07:54;;;;;;;;;91.75;69.50;;;;;-0.28;91.35;101257.59;5139874;27;8865;-76
2022/02/19 03:10:50;;;;;;;;;93.50;72.00;;;;;-0.20;91.14;101255.53;5139428;27;8817;-74
2022/02/19 03:13:45;;;;;;;;;94.00;72.75;;;;;-0.07;90.15;101261.50;5154026;27;8841;-77
2022/02/19 03:16:41;;;;;;;;;84.50;67.25;;;;;-0.28;91.07;101260.31;5154209;27;8825;-75
2022/02/19 03:19:37;;;;;;;;;85.25;69.75;;;;;-0.28;91.41;101276.63;5154021;27;8853;-76
2022/02/19 03:22:36;;;;;;;;;81.33;65.67;;;;;-0.42;92.00;101271.72;5154916;27;9554;-78
2022/02/19 03:25:32;;;;;;;;;90.00;72.25;;;;;-0.43;92.00;101283.66;5153891;27;8829;-75
2022/02/19 03:28:28;;;;;;;;;85.50;63.75;;;;;-0.44;91.55;101285.56;5137971;27;8842;-76
2022/02/19 03:31:24;;;;;;;;;90.50;69.00;;;;;-0.49;91.40;101290.91;5119281;27;8850;-76
2022/02/19 03:34:19;;;;;;;;;70.67;57.67;;;;;-0.50;91.90;101283.00;5111713;28;8837;-74
2022/02/19 03:37:15;;;;;;;;;88.25;71.00;;;;;-0.55;91.74;101289.13;5117424;27;8824;-73
2022/02/19 03:40:11;;;;;;;;;88.75;71.25;;;;;-0.61;92.19;101277.38;5134998;27;8986;-75
2022/02/19 03:43:06;;;;;;;;;79.50;65.00;;;;;-0.51;92.51;101281.34;5138014;27;8833;-76
2022/02/19 03:45:50;;;;;;;;;78.00;66.00;;;;;-0.41;92.17;101267.94;5120272;27;8999;-75
2022/02/19 03:48:45;;;;;;;;;73.75;61.00;;;;;-0.44;92.53;101277.41;5129702;27;9669;-75
2022/02/19 03:51:15;;;;;;;;;78.00;63.67;;;;;-0.44;91.53;101271.97;5137518;27;8847;-75
2022/02/19 03:54:12;;;;;;;;;75.33;63.33;;;;;-0.36;92.33;101266.16;5135807;27;8859;-76
2022/02/19 03:57:07;;;;;;;;;82.00;68.33;;;;;-0.21;91.32;101271.03;5136945;27;8855;-74
2022/02/19 04:00:06;;;;;;;;;79.00;60.33;;;;;-0.21;91.56;101272.94;5116973;28;8857;-75
2022/02/19 04:02:38;;;;;;;;;86.25;68.75;;;;;-0.01;90.87;101274.09;5117124;28;8842;-75
2022/02/19 04:05:34;;;;;;;;;87.67;70.00;;;;;-0.10;90.49;101270.13;5117490;27;8847;-75
2022/02/19 04:08:29;;;;;;;;;84.50;69.25;;;;;-0.24;91.33;101273.41;5124060;27;8863;-65
2022/02/19 04:11:26;;;;;;;;;86.25;68.25;;;;;-0.27;91.18;101272.00;5116553;28;8885;-74
2022/02/19 04:14:21;;;;;;;;;78.67;65.00;;;;;-0.24;91.27;101273.41;5116513;28;8822;-75
2022/02/19 04:17:17;;;;;;;;;84.67;66.00;;;;;-0.22;91.26;101272.09;5116813;27;8838;-75
2022/02/19 04:20:13;;;;;;;;;79.67;66.00;;;;;-0.33;90.69;101273.81;5116289;28;8819;-75
2022/02/19 04:23:09;;;;;;;;;90.67;66.00;;;;;-0.35;90.85;101270.50;5116433;28;8831;-75
2022/02/19 04:26:05;;;;;;;;;81.50;65.50;;;;;-0.40;91.18;101272.31;5131933;27;8901;-75
2022/02/19 04:28:33;;;;;;;;;73.33;60.33;;;;;-0.42;91.32;101283.41;5123034;27;9011;-74
2022/02/19 04:31:29;;;;;;;;;87.33;67.00;;;;;-0.39;90.97;101287.53;5116069;28;8867;-75
2022/02/19 04:34:24;;;;;;;;;84.75;69.00;;;;;-0.51;90.53;101287.59;5136054;27;8867;-75
2022/02/19 04:37:21;;;;;;;;;84.25;67.00;;;;;-0.49;90.69;101284.63;5136364;27;8828;-73
2022/02/19 04:40:17;;;;;;;;;83.50;68.50;;;;;-0.56;90.62;101285.59;5156483;27;9577;-74
2022/02/19 04:43:12;;;;;;;;;85.25;69.25;;;;;-0.28;90.04;101287.50;5156584;27;8831;-74
2022/02/19 04:46:08;;;;;;;;;100.25;75.50;;;;;-0.12;89.66;101288.59;5141727;27;8893;-74
2022/02/19 04:49:04;;;;;;;;;95.25;76.50;;;;;-0.14;90.12;101300.78;5142475;27;8827;-74
2022/02/19 04:52:00;;;;;;;;;93.75;74.00;;;;;-0.25;90.89;101302.47;5135606;27;8822;-74
2022/02/19 04:54:56;;;;;;;;;97.00;74.50;;;;;-0.41;90.95;101306.81;5135328;27;8831;-74
2022/02/19 04:57:52;;;;;;;;;97.25;76.50;;;;;-0.50;91.17;101315.59;5136160;27;8904;-74
2022/02/19 05:00:47;;;;;;;;;86.75;70.00;;;;;-0.56;91.82;101322.81;5134989;27;8815;-74
2022/02/19 05:03:15;;;;;;;;;88.75;65.75;;;;;-0.63;92.29;101316.69;5136511;27;8839;-74
2022/02/19 05:06:13;;;;;;;;;65.75;48.25;;;;;-0.61;91.79;101325.44;5135071;27;8859;-73
2022/02/19 05:09:09;;;;;;;;;95.75;74.75;;;;;-0.67;92.24;101332.66;5149891;27;8813;-73
2022/02/19 05:12:05;;;;;;;;;81.00;66.50;;;;;-0.68;92.92;101351.94;5155871;27;8828;-74
2022/02/19 05:14:36;;;;;;;;;94.75;68.50;;;;;-0.63;92.52;101352.84;5156974;27;9649;-74
2022/02/19 05:17:31;;;;;;;;;88.75;70.75;;;;;-0.59;92.64;101358.63;5155290;27;8817;-74
2022/02/19 05:20:27;;;;;;;;;91.25;72.50;;;;;-0.61;93.91;101352.63;5134988;27;8992;-74
2022/02/19 05:23:23;;;;;;;;;99.50;73.25;;;;;-0.57;93.31;101364.66;5155226;27;8829;-74
2022/02/19 05:26:19;;;;;;;;;91.00;69.50;;;;;-0.47;93.91;101362.13;5155151;27;8829;-74
2022/02/19 05:28:47;;;;;;;;;97.75;73.50;;;;;-0.40;93.82;101360.09;5141021;27;8962;-75
2022/02/19 05:31:42;;;;;;;;;100.25;75.00;;;;;-0.21;94.12;101362.66;5134610;27;8839;-75
2022/02/19 05:34:38;;;;;;;;;94.25;72.75;;;;;-0.07;94.11;101372.16;5134823;27;8842;-75
2022/02/19 05:37:35;;;;;;;;;91.50;75.50;;;;;0.13;93.58;101379.84;5141666;27;8846;-74
2022/02/19 05:40:16;;;;;;;;;77.25;65.50;;;;;0.19;93.40;101368.81;5155053;27;8875;-74
2022/02/19 05:43:12;;;;;;;;;114.25;90.00;;;;;0.42;93.27;101378.72;5155115;27;8840;-74
2022/02/19 05:46:07;;;;;;;;;102.00;76.25;;;;;0.54;94.22;101386.84;5155269;27;8825;-74
2022/02/19 05:49:03;;;;;;;;;107.50;86.00;;;;;0.75;94.87;101385.25;5141266;27;8899;-75
2022/02/19 05:51:59;;;;;;;;;91.50;62.75;;;;;0.90;95.77;101388.19;5134402;27;8816;-75
2022/02/19 05:54:55;;;;;;;;;89.00;69.67;;;;;1.01;95.74;101397.38;5134327;27;8899;-75
2022/02/19 05:57:50;;;;;;;;;94.00;72.00;;;;;1.15;95.92;101393.22;5137425;27;8878;-74
2022/02/19 06:00:46;;;;;;;;;101.67;78.33;;;;;1.34;95.69;101396.47;5137168;27;8835;-74
2022/02/19 06:03:42;;;;;;;;;68.33;55.00;;;;;1.56;95.42;101399.19;5134141;27;9576;-75
2022/02/19 06:06:38;;;;;;;;;64.33;54.67;;;;;1.75;95.93;101405.16;5134137;27;8827;-74
2022/02/19 06:09:33;;;;;;;;;72.33;56.67;;;;;1.79;96.46;101389.94;5134144;27;8915;-75
2022/02/19 06:12:29;;;;;;;;;61.33;53.33;;;;;2.03;96.61;101390.47;5133998;27;8911;-75
2022/02/19 06:15:25;;;;;;;;;70.67;57.00;;;;;2.08;95.77;101388.63;5133941;27;8823;-74
2022/02/19 06:18:20;;;;;;;;;65.00;53.00;;;;;2.24;95.65;101400.53;5142196;27;8841;-74
2022/02/19 06:21:16;;;;;;;;;74.67;60.67;;;;;2.37;95.93;101404.72;5133674;27;8907;-74
2022/02/19 06:23:44;;;;;;;;;77.00;58.67;;;;;2.57;95.54;101404.91;5134582;27;8847;-74
2022/02/19 06:26:39;;;;;;;;;49.67;45.33;;;;;2.69;94.20;101407.47;5120004;27;9614;-74
2022/02/19 06:29:08;;;;;;;;;57.33;47.00;;;;;2.75;95.04;101420.06;5148274;27;8905;-74
2022/02/19 06:32:04;;;;;;;;;65.67;53.67;;;;;2.84;94.87;101413.06;5147097;27;8833;-74
2022/02/19 06:34:32;;;;;;;;;61.67;49.67;;;;;2.98;94.25;101419.69;5134715;27;8838;-73
2022/02/19 06:37:28;;;;;;;;;53.00;46.67;;;;;3.16;94.15;101423.94;5147401;27;8840;-74
2022/02/19 06:40:23;;;;;;;;;53.67;46.00;;;;;3.31;93.37;101415.00;5154407;27;8809;-73
2022/02/19 06:42:51;;;;;;;;;59.33;49.33;;;;;3.46;93.08;101423.31;5136648;27;11496;-73
2022/02/19 06:45:46;;;;;;;;;54.75;44.25;;;;;3.50;92.17;101421.66;5153888;27;11503;-73
2022/02/19 06:48:42;;;;;;;;;48.00;42.67;;;;;3.65;92.34;101429.13;5153197;27;12281;-74
2022/02/19 06:51:38;;;;;;;;;41.33;34.00;;;;;3.78;91.77;101434.13;5153894;27;11621;-73
2022/02/19 06:54:34;;;;;;;;;44.50;42.50;;;;;3.83;91.20;101423.19;5153679;27;11499;-74
2022/02/19 06:57:29;;;;;;;;;49.75;44.00;;;;;3.86;91.67;101430.03;5151907;27;11607;-76
2022/02/19 07:00:25;;;;;;;;;43.75;42.25;;;;;3.95;91.08;101427.59;5151945;27;11534;-75
2022/02/19 07:03:20;;;;;;;;;45.00;42.25;;;;;4.04;90.48;101428.72;5132939;27;11636;-74
2022/02/19 07:06:16;;;;;;;;;44.75;38.25;;;;;4.02;90.58;101429.00;5132837;27;11506;-74
2022/02/19 07:08:44;;;;;;;;;56.25;45.75;;;;;4.10;90.85;101414.78;5134953;27;11596;-75
2022/02/19 07:11:12;;;;;;;;;45.25;40.50;;;;;4.28;90.05;101413.44;5133521;27;11678;-74
2022/02/19 07:14:07;;;;;;;;;40.25;38.75;;;;;4.55;89.77;101410.47;5119068;27;12249;-74
2022/02/19 07:16:52;;;;;;;;;44.00;37.75;;;;;4.52;89.18;101416.50;5139349;27;11521;-74
2022/02/19 07:19:20;;;;;;;;;37.50;35.25;;;;;4.73;89.82;101412.66;5146431;27;11503;-73
2022/02/19 07:21:48;;;;;;;;;32.25;31.25;;;;;4.83;89.43;101417.34;5137688;27;11522;-74
2022/02/19 07:24:43;;;;;;;;;28.75;28.25;;;;;5.23;89.21;101405.50;5141011;27;11498;-74
2022/02/19 07:27:41;;;;;;;;;27.50;23.25;;;;;5.56;89.30;101409.50;5147369;27;11467;-73
2022/02/19 07:30:38;;;;;;;;;24.75;24.75;;;;;5.58;87.15;101411.97;5147340;27;11503;-73
2022/02/19 07:33:34;;;;;;;;;41.75;38.00;;;;;5.71;86.44;101408.63;5142175;27;11486;-74
2022/02/19 07:36:29;;;;;;;;;30.25;28.25;;;;;5.86;84.02;101407.75;5134398;27;11524;-74
2022/02/19 07:39:11;;;;;;;;;37.50;30.25;;;;;6.09;83.71;101407.09;5136371;27;11664;-74
2022/02/19 07:41:41;;;;;;;;;30.00;25.25;;;;;6.01;83.00;101404.97;5152792;27;11601;-73
2022/02/19 07:44:36;;;;;;;;;32.50;31.00;;;;;6.23;83.93;101401.00;5137470;27;11604;-72
2022/02/19 07:47:06;;;;;;;;;25.25;22.25;;;;;6.28;82.22;101407.25;5137439;27;11513;-74
2022/02/19 07:58:48;;;;;;;;;26.00;24.00;;;;;6.52;78.29;101418.38;5157201;27;11462;-74
2022/02/19 08:01:44;;;;;;;;;21.75;20.50;;;;;6.81;77.23;101415.66;5157019;27;12380;-74
2022/02/19 08:04:40;;;;;;;;;24.25;23.25;;;;;6.90;76.88;101413.09;5142944;27;12250;-75
2022/02/19 08:07:07;;;;;;;;;23.50;22.25;;;;;7.03;75.28;101417.13;5158212;27;12281;-73
2022/02/19 08:09:35;;;;;;;;;21.50;20.50;;;;;7.06;74.64;101417.38;5122513;27;11499;-73
2022/02/19 08:12:04;;;;;;;;;24.75;19.75;;;;;7.23;75.24;101406.75;5158038;27;11507;-73
2022/02/19 08:14:32;;;;;;;;;25.50;25.00;;;;;7.42;74.81;101406.81;5157830;27;11426;-74
2022/02/19 08:17:00;;;;;;;;;24.25;22.50;;;;;7.63;72.69;101403.84;5157811;27;12258;-71
2022/02/19 08:19:29;;;;;;;;;17.75;17.75;;;;;7.61;72.37;101415.16;5157832;27;11561;-74
2022/02/19 08:22:16;;;;;;;;;21.75;21.75;;;;;7.55;73.27;101404.47;5157481;27;11491;-74
2022/02/19 08:24:44;;;;;;;;;24.50;23.00;;;;;7.68;72.97;101407.34;5122038;27;11491;-75
2022/02/19 08:27:12;;;;;;;;;20.00;20.00;;;;;7.82;71.99;101410.22;5139455;27;11512;-75
2022/02/19 08:29:44;;;;;;;;;11.50;11.25;;;;;7.93;71.44;101400.69;5157449;27;11524;-75
2022/02/19 08:32:12;;;;;;;;;16.25;16.25;;;;;7.52;71.93;101408.66;5157050;27;11519;-75
2022/02/19 08:34:40;;;;;;;;;9.00;7.75;;;;;8.03;70.58;101408.00;5157669;27;12351;-75
2022/02/19 08:37:09;;;;;;;;;16.00;16.00;;;;;8.16;70.23;101395.44;5151184;27;11422;-75
2022/02/19 08:40:11;;;;;;;;;16.75;16.75;;;;;8.33;68.79;101399.28;5134077;27;11452;-76
2022/02/19 08:43:07;;;;;;;;;22.25;22.00;;;;;8.50;69.46;101397.97;5142838;27;12153;-75
2022/02/19 08:46:02;;;;;;;;;17.00;17.00;;;;;8.80;68.69;101400.22;5140779;27;11612;-73
2022/02/19 08:48:58;;;;;;;;;13.50;13.50;;;;;8.71;67.84;101402.03;5121789;27;11447;-75
2022/02/19 08:51:53;;;;;;;;;15.25;13.75;;;;;9.04;66.37;101410.31;5135432;27;11448;-76
2022/02/19 08:54:49;;;;;;;;;16.25;16.25;;;;;9.07;66.32;101416.06;5135333;27;11284;-75
2022/02/19 08:57:45;;;;;;;;;12.00;12.00;;;;;8.91;66.56;101409.16;5155780;27;11225;-74
2022/02/19 09:00:23;;;;;;;;;12.75;12.75;;;;;9.17;66.36;101410.34;5154703;27;11300;-74
2022/02/19 09:03:20;;;;;;;;;10.50;10.50;;;;;9.16;65.37;101421.69;5144205;27;11175;-74
2022/02/19 09:05:48;;;;;;;;;9.00;9.00;;;;;9.23;65.64;101411.06;5156855;27;11399;-74
2022/02/19 09:08:17;;;;;;;;;6.25;6.25;;;;;8.85;66.94;101404.84;5140069;27;11036;-74
2022/02/19 09:10:45;;;;;;;;;11.75;11.00;;;;;9.42;65.84;101399.94;5135948;27;11076;-74
2022/02/19 09:13:27;;;;;;;;;11.75;11.75;;;;;9.34;65.16;101397.88;5135028;27;11757;-76
2022/02/19 09:15:59;;;;;;;;;13.75;13.75;;;;;9.59;64.57;101396.59;5139649;27;11005;-75
2022/02/19 09:18:55;;;;;;;;;10.00;9.50;;;;;9.52;64.24;101402.53;5135831;27;10900;-75
2022/02/19 09:21:51;;;;;;;;;7.00;6.75;;;;;9.41;63.75;101388.06;5140429;27;11013;-76
2022/02/19 09:24:47;;;;;;;;;12.75;7.75;;;;;9.26;64.35;101385.63;5133682;27;11004;-74
2022/02/19 09:27:24;;;;;;;;;9.75;7.50;;;;;9.09;65.49;101380.69;5154696;27;11265;-73
2022/02/19 09:30:13;;;;;;;;;5.00;5.00;;;;;9.23;65.35;101374.38;5137452;27;10871;-75
2022/02/19 09:33:10;;;;;;;;;9.50;9.50;;;;;10.03;81.65;101377.38;5122741;27;11793;-73
2022/02/19 09:36:07;;;;;;;;;9.50;9.00;;;;;10.16;69.35;101383.19;5127780;27;11129;-76
2022/02/19 09:39:03;;;;;;;;;10.25;8.50;;;;;10.70;69.87;101379.44;5154340;27;10950;-74
2022/02/19 09:42:03;;;;;;;;;9.75;9.75;;;;;10.72;68.87;101377.16;5155262;27;10703;-76
2022/02/19 09:45:00;;;;;;;;;9.50;9.50;;;;;10.99;70.42;101369.88;5155159;27;10501;-76
2022/02/19 09:47:57;;;;;;;;;8.25;8.25;;;;;11.30;71.13;101369.84;5138031;27;10619;-75
2022/02/19 09:50:54;;;;;;;;;6.75;6.75;;;;;11.00;63.17;101374.25;5134190;27;10325;-76
2022/02/19 09:53:50;;;;;;;;;8.00;8.00;;;;;10.79;65.96;101377.53;5135701;27;10295;-75
2022/02/19 09:56:45;;;;;;;;;6.75;6.25;;;;;10.29;58.74;101394.25;5120433;27;10372;-76
2022/02/19 09:59:41;;;;;;;;;9.75;8.75;;;;;10.60;58.73;101388.00;5154389;27;10948;-76
2022/02/19 10:02:09;;;;;;;;;5.75;5.75;;;;;10.78;59.88;101392.50;5149926;27;10354;-75
2022/02/19 10:05:16;;;;;;;;;8.25;8.00;;;;;11.41;65.26;101380.31;5154458;27;10194;-74
2022/02/19 10:08:12;;;;;;;;;6.50;6.50;;;;;11.30;58.82;101392.81;5147396;27;10475;-75
2022/02/19 10:11:12;;;;;;;;;8.50;8.50;;;;;11.59;60.67;101392.28;5133704;27;10859;-73
2022/02/19 10:14:23;;;;;;;;;6.50;6.50;;;;;10.89;56.76;101401.41;5133730;27;9974;-71
2022/02/19 10:17:16;;;;;;;;;5.25;5.25;;;;;10.45;56.86;101393.91;5144000;27;10149;-71
2022/02/19 10:20:17;;;;;;;;;10.75;10.75;;;;;10.65;56.37;101387.03;5133291;27;10172;-72
2022/02/19 10:22:45;;;;;;;;;7.25;7.25;;;;;10.73;54.30;101400.13;5134824;27;10473;-71
2022/02/19 10:25:40;;;;;;;;;0.75;0.75;;;;;10.58;54.02;101398.53;5137010;27;11208;-70
2022/02/19 10:28:16;;;;;;;;;6.25;6.25;;;;;10.87;53.43;101398.09;5155110;27;10175;-71
2022/02/19 10:30:48;;;;;;;;;7.75;7.75;;;;;11.04;52.84;101400.16;5154329;27;10214;-70
2022/02/19 10:33:44;;;;;;;;;3.75;3.75;;;;;11.32;52.24;101400.81;5145139;27;10327;-71
2022/02/19 10:36:51;;;;;;;;;4.00;4.00;;;;;11.00;50.69;101401.94;5133983;27;10338;-71
2022/02/19 10:39:47;;;;;;;;;3.75;3.50;;;;;10.50;48.66;101385.47;5135962;27;10140;-71
2022/02/19 10:42:57;;;;;;;;;2.00;2.00;;;;;10.88;47.20;101385.91;5133042;27;10364;-72
2022/02/19 10:45:57;;;;;;;;;2.00;2.00;;;;;11.36;46.04;101371.34;5133985;27;10399;-72
2022/02/19 10:48:53;;;;;;;;;11.00;7.00;;;;;10.80;46.47;101359.00;5149104;27;10966;-70
2022/02/19 10:51:49;;;;;;;;;4.00;4.00;;;;;11.37;46.31;101365.50;5119421;27;10100;-71
2022/02/19 10:54:44;;;;;;;;;6.25;6.25;;;;;11.27;46.07;101368.56;5133373;27;10423;-72
2022/02/19 10:57:42;;;;;;;;;5.50;5.00;;;;;11.53;46.45;101363.09;5141865;27;10237;-71
2022/02/19 11:00:40;;;;;;;;;0.00;0.00;;;;;11.23;47.99;101359.22;5154136;27;10271;-71
2022/02/19 11:03:35;;;;;;;;;6.00;6.00;;;;;11.14;48.14;101366.69;5140294;27;9886;-71
2022/02/19 11:06:32;;;;;;;;;3.25;3.25;;;;;10.72;48.43;101363.34;5153161;27;10345;-70
2022/02/19 11:09:28;;;;;;;;;4.00;4.00;;;;;10.97;47.24;101344.47;5153701;27;10217;-73
2022/02/19 11:12:24;;;;;;;;;4.00;4.00;;;;;10.78;47.10;101351.00;5139143;27;10336;-72
2022/02/19 11:15:20;;;;;;;;;3.00;3.00;;;;;10.61;47.88;101337.06;5144054;27;10118;-71
2022/02/19 11:18:19;;;;;;;;;4.00;3.50;;;;;10.43;47.68;101341.69;5138112;27;10253;-71
2022/02/19 11:21:17;;;;;;;;;7.00;7.00;;;;;10.53;48.56;101326.78;5153464;27;10360;-72
2022/02/19 11:24:16;;;;;;;;;3.50;3.50;;;;;10.50;49.53;101322.66;5132999;27;11102;-71
2022/02/19 11:27:15;;;;;;;;;2.00;2.00;;;;;10.68;49.11;101315.31;5133332;27;10352;-72
2022/02/19 11:30:11;;;;;;;;;3.00;3.00;;;;;10.29;50.22;101319.63;5133123;27;10441;-71
2022/02/19 11:33:10;;;;;;;;;3.50;3.50;;;;;10.61;50.63;101314.94;5132556;27;10367;-71
2022/02/19 11:35:41;;;;;;;;;5.75;5.00;;;;;10.77;49.63;101316.19;5134261;27;10275;-71
2022/02/19 11:38:48;;;;;;;;;7.00;5.25;;;;;10.52;48.41;101311.31;5132283;27;10405;-73
2022/02/19 11:41:45;;;;;;;;;3.50;3.50;;;;;10.70;47.33;101307.50;5132735;27;10236;-72
2022/02/19 11:44:48;;;;;;;;;2.75;2.75;;;;;10.67;47.73;101315.63;5139183;27;10302;-71
2022/02/19 11:47:45;;;;;;;;;3.00;3.00;;;;;10.48;48.69;101315.84;5137113;27;10401;-73
2022/02/19 11:50:43;;;;;;;;;3.75;3.75;;;;;10.46;49.01;101295.97;5137394;27;10541;-71
2022/02/19 11:53:39;;;;;;;;;3.00;3.00;;;;;10.51;49.34;101271.78;5133041;27;10263;-75
2022/02/19 11:56:38;;;;;;;;;5.75;5.25;;;;;10.66;49.15;101280.78;5132597;27;10343;-75
2022/02/19 11:59:45;;;;;;;;;2.25;2.25;;;;;10.63;47.99;101275.91;5132822;27;10437;-75
2022/02/19 12:02:42;;;;;;;;;2.50;2.50;;;;;10.66;47.65;101262.28;5136540;27;10365;-75
2022/02/19 12:05:38;;;;;;;;;1.00;1.00;;;;;11.03;46.96;101258.19;5122714;27;10140;-75
2022/02/19 12:08:45;;;;;;;;;1.00;1.00;;;;;11.32;44.35;101262.34;5136614;27;10229;-75
2022/02/19 12:11:57;;;;;;;;;1.50;1.50;;;;;11.23;42.70;101259.56;5136405;27;10214;-75
2022/02/19 12:14:57;;;;;;;;;1.25;1.25;;;;;11.24;42.86;101252.88;5122508;27;10283;-76
2022/02/19 12:17:53;;;;;;;;;2.00;2.00;;;;;11.03;44.13;101260.94;5136322;27;9924;-75
2022/02/19 12:20:48;;;;;;;;;2.00;2.00;;;;;10.96;44.95;101257.81;5136216;27;10640;-75
2022/02/19 12:23:45;;;;;;;;;2.00;2.00;;;;;10.86;45.27;101256.16;5135899;27;9971;-75
2022/02/19 12:27:05;;;;;;;;;2.00;2.00;;;;;10.69;46.03;101267.16;5136082;27;10131;-73
2022/02/19 12:30:21;;;;;;;;;3.75;2.25;;;;;10.54;45.85;101275.84;5135909;27;10117;-74
2022/02/19 12:33:27;;;;;;;;;4.00;4.00;;;;;10.43;45.66;101264.25;5136062;27;10241;-75
2022/02/19 12:36:23;;;;;;;;;2.00;2.00;;;;;10.38;45.76;101282.91;5136073;27;10368;-75
2022/02/19 12:39:19;;;;;;;;;2.25;2.00;;;;;10.56;45.34;101279.13;5135701;27;10374;-74
2022/02/19 12:42:20;;;;;;;;;3.75;3.25;;;;;10.63;45.08;101289.72;5135726;27;10305;-74
2022/02/19 12:45:17;;;;;;;;;1.25;1.25;;;;;10.73;44.46;101289.44;5135767;27;10298;-74
2022/02/19 12:48:13;;;;;;;;;2.00;2.00;;;;;10.50;44.60;101285.91;5135668;27;10359;-74
2022/02/19 12:51:08;;;;;;;;;2.50;2.50;;;;;10.54;44.70;101281.38;5135531;27;10367;-74
2022/02/19 12:54:05;;;;;;;;;2.00;2.00;;;;;10.49;44.93;101292.56;5135392;27;10432;-74
2022/02/19 12:57:01;;;;;;;;;2.75;2.75;;;;;10.36;45.14;101297.06;5135471;27;10197;-74
2022/02/19 12:59:57;;;;;;;;;2.50;2.00;;;;;10.33;45.52;101281.09;5135465;27;10896;-73
2022/02/19 13:03:01;;;;;;;;;3.25;3.25;;;;;10.29;44.89;101267.09;5138975;27;10469;-73
2022/02/19 13:05:58;;;;;;;;;3.00;3.00;;;;;10.38;45.43;101261.59;5133526;27;10351;-73
2022/02/19 13:09:08;;;;;;;;;2.50;2.50;;;;;10.30;45.65;101262.38;5136786;27;10331;-71
2022/02/19 13:12:05;;;;;;;;;2.00;2.00;;;;;10.34;45.28;101240.44;5138252;27;10503;-71
2022/02/19 13:15:08;;;;;;;;;3.00;3.00;;;;;10.16;46.21;101269.88;5138113;27;10360;-71
2022/02/19 13:18:04;;;;;;;;;1.75;1.75;;;;;10.06;46.53;101265.41;5136307;27;10433;-72
2022/02/19 13:21:08;;;;;;;;;3.25;3.25;;;;;10.16;45.81;101273.44;5134412;27;10430;-72
2022/02/19 13:24:15;;;;;;;;;4.00;4.00;;;;;10.24;46.13;101278.25;5140252;27;10558;-73